Independence, Iowa
Current Conditions -  °F | °C
As of 2:35 PM on Saturday 25 Oct 2014 (Local Time) from KIIB Reporting Station
Clear Clear  
Wind Chill: 68°   Ceiling: Unl
Heat Index: 68°   Visibility: 10mi
Dew Point: 36°   Wind: 12mph
Humidity: 30%   Direction: 320°NW
Pressure: 30.05"   Gusts: 17mph
Location:  42.48°N, 91.89°W
Report Text: KIIB 251935Z AUTO 32010G15KT 10SM CLR 20/02 A3005 RMK AO2
Loading
Personal Weather Stations






























Interactive Weather Map
Tropical Storm Tracking
New forecast layout! Learn more

10-Day Weather Forecast

Advertisements
Track Severe Weather on mobile